Time;durP1;ratioP1;P1;durP2;ratioP2;P2;SDS_P1;SDS_P2;PMS_P1;PMS_P2;Temp;Humidity;BMP_temperature;BMP_pressure;BME280_temperature;BME280_humidity;BME280_pressure;Samples;Min_cycle;Max_cycle;Signal;HPM_P1;HPM_P2
2022/06/24 00:00:06;;;;;;;9.13;8.23;;;;;28.10;100547.00;;;;5034717;28;20208;-76
2022/06/24 00:02:33;;;;;;;14.73;8.77;;;;;28.10;100520.00;;;;5040032;28;20231;-77
2022/06/24 00:05:03;;;;;;;11.20;8.70;;;;;28.10;100529.00;;;;5045676;28;20195;-77
2022/06/24 00:07:31;;;;;;;10.27;9.20;;;;;28.10;100536.00;;;;5042878;28;20199;-76
2022/06/24 00:09:58;;;;;;;10.98;9.05;;;;;28.10;100531.00;;;;5048466;28;20198;-77
2022/06/24 00:12:27;;;;;;;9.93;7.95;;;;;28.00;100513.00;;;;5045078;28;20203;-77
2022/06/24 00:15:00;;;;;;;10.75;8.57;;;;;28.00;100503.00;;;;5043914;28;20196;-77
2022/06/24 00:17:32;;;;;;;10.50;8.75;;;;;28.00;100504.00;;;;5037608;28;20200;-77
2022/06/24 00:20:01;;;;;;;9.68;8.73;;;;;28.00;100490.00;;;;5048065;28;20195;-77
2022/06/24 00:22:30;;;;;;;9.77;8.77;;;;;27.90;100465.00;;;;5047106;28;20250;-77
2022/06/24 00:25:12;;;;;;;12.10;9.02;;;;;27.80;100456.00;;;;5041317;28;20831;-77
2022/06/24 00:27:41;;;;;;;11.60;8.80;;;;;27.90;100451.00;;;;5029735;28;20666;-77
2022/06/24 00:30:11;;;;;;;10.43;8.85;;;;;27.90;100447.00;;;;5028557;28;20205;-77
2022/06/24 00:32:38;;;;;;;9.38;8.48;;;;;27.90;100457.00;;;;5027754;28;20271;-77
2022/06/24 00:35:09;;;;;;;8.77;7.97;;;;;27.90;100448.00;;;;5031499;28;20195;-78
2022/06/24 00:37:38;;;;;;;8.90;7.97;;;;;27.80;100461.00;;;;5043052;28;20199;-77
2022/06/24 00:40:25;;;;;;;8.75;7.70;;;;;27.70;100457.00;;;;5042713;28;20196;-77
2022/06/24 00:42:54;;;;;;;7.35;6.53;;;;;27.80;100461.00;;;;5044032;28;20223;-77
2022/06/24 00:45:32;;;;;;;8.48;6.93;;;;;27.70;100450.00;;;;5045739;28;20200;-77
2022/06/24 00:48:00;;;;;;;11.15;7.68;;;;;27.80;100452.00;;;;5028810;28;20203;-77
2022/06/24 00:50:29;;;;;;;9.05;7.20;;;;;27.80;100460.00;;;;5034567;28;20203;-77
2022/06/24 00:52:59;;;;;;;10.60;8.52;;;;;27.70;100461.00;;;;5030384;28;20200;-78
2022/06/24 00:55:28;;;;;;;9.07;7.97;;;;;27.70;100465.00;;;;5028054;28;20692;-77
2022/06/24 00:57:57;;;;;;;9.90;8.30;;;;;27.70;100465.00;;;;5032683;28;20219;-77
2022/06/24 01:00:26;;;;;;;10.73;9.55;;;;;27.70;100478.00;;;;5031213;28;20282;-77
2022/06/24 01:02:58;;;;;;;11.95;9.60;;;;;27.60;100494.00;;;;5042550;28;20211;-78
2022/06/24 01:05:27;;;;;;;10.65;9.40;;;;;27.60;100511.00;;;;5031006;28;20188;-78
2022/06/24 01:07:54;;;;;;;10.13;8.57;;;;;27.60;100532.00;;;;5028887;28;20196;-79
2022/06/24 01:10:21;;;;;;;12.13;9.18;;;;;27.50;100575.00;;;;5027585;28;20197;-77
2022/06/24 01:12:49;;;;;;;11.60;8.95;;;;;27.50;100631.00;;;;5031106;28;20211;-77
2022/06/24 01:15:17;;;;;;;9.60;8.63;;;;;27.40;100696.00;;;;5043207;28;20200;-77
2022/06/24 01:17:45;;;;;;;12.93;9.65;;;;;27.40;100765.00;;;;5046703;28;20212;-76
2022/06/24 01:20:13;;;;;;;13.50;9.70;;;;;27.30;100785.00;;;;5049534;28;20203;-77
2022/06/24 01:22:42;;;;;;;10.43;7.28;;;;;27.30;100746.00;;;;5038642;28;20233;-79
2022/06/24 01:25:11;;;;;;;9.63;6.93;;;;;27.10;100703.00;;;;5038081;28;20216;-81
2022/06/24 01:27:39;;;;;;;8.38;4.82;;;;;27.00;100674.00;;;;5044762;28;20298;-80
2022/06/24 01:30:09;;;;;;;5.13;3.90;;;;;26.90;100667.00;;;;5045363;28;20203;-79
2022/06/24 01:32:36;;;;;;;13.02;3.35;;;;;26.80;100683.00;;;;5048120;28;20207;-78
2022/06/24 01:35:05;;;;;;;3.45;2.90;;;;;26.70;100702.00;;;;5045705;28;20203;-80
2022/06/24 01:37:32;;;;;;;10.10;3.35;;;;;26.60;100700.00;;;;5035257;28;20200;-78
2022/06/24 01:40:01;;;;;;;2.38;1.85;;;;;26.50;100689.00;;;;5040673;28;20205;-79
2022/06/24 01:42:29;;;;;;;2.20;1.60;;;;;26.50;100674.00;;;;5035147;28;20227;-79
2022/06/24 01:44:56;;;;;;;4.53;1.40;;;;;26.40;100648.00;;;;5041078;28;20227;-79
2022/06/24 01:47:23;;;;;;;0.63;0.63;;;;;26.30;100642.00;;;;5040690;28;20199;-79
2022/06/24 01:49:50;;;;;;;1.55;0.68;;;;;26.20;100656.00;;;;5041928;28;20194;-78
2022/06/24 01:52:18;;;;;;;0.90;0.50;;;;;26.10;100650.00;;;;5051803;28;20208;-78
2022/06/24 01:54:45;;;;;;;1.30;0.60;;;;;26.00;100634.00;;;;5046073;28;20210;-78
2022/06/24 01:57:13;;;;;;;1.65;0.70;;;;;25.90;100622.00;;;;5038837;28;20200;-78
2022/06/24 01:59:41;;;;;;;1.70;1.00;;;;;25.80;100612.00;;;;5039005;28;20208;-78
2022/06/24 02:02:09;;;;;;;1.80;1.00;;;;;25.70;100602.00;;;;5041686;28;20696;-78
2022/06/24 02:04:36;;;;;;;2.17;1.08;;;;;25.60;100581.00;;;;5044460;28;20200;-77
2022/06/24 02:07:04;;;;;;;1.42;0.98;;;;;25.60;100577.00;;;;5048117;28;20203;-77
2022/06/24 02:13:26;;;;;;;2.45;1.00;;;;;25.50;100558.00;;;;5049521;28;20207;-77
2022/06/24 02:15:10;;;;;;;1.63;1.00;;;;;25.40;100552.00;;;;4984346;28;20202;-77
2022/06/24 02:17:37;;;;;;;3.92;0.98;;;;;25.40;100562.00;;;;5046112;28;20212;-77
2022/06/24 02:20:06;;;;;;;1.30;0.90;;;;;25.40;100565.00;;;;5047786;28;20203;-77
2022/06/24 02:22:33;;;;;;;2.15;1.20;;;;;25.30;100566.00;;;;5044456;28;20227;-77
2022/06/24 02:25:00;;;;;;;1.30;0.90;;;;;25.30;100557.00;;;;5049370;28;20219;-77
2022/06/24 02:27:29;;;;;;;1.38;1.02;;;;;25.20;100550.00;;;;5047739;28;20200;-77
2022/06/24 02:29:56;;;;;;;2.13;1.20;;;;;25.20;100550.00;;;;5046312;28;20207;-77
2022/06/24 02:32:23;;;;;;;3.78;1.25;;;;;25.20;100549.00;;;;5038242;28;20187;-77
2022/06/24 02:34:52;;;;;;;2.08;1.00;;;;;25.20;100542.00;;;;5044777;28;20200;-77
2022/06/24 02:37:19;;;;;;;2.20;0.93;;;;;25.20;100547.00;;;;5042024;28;20196;-76
2022/06/24 02:39:46;;;;;;;1.30;1.00;;;;;25.10;100530.00;;;;5041662;28;20203;-77
2022/06/24 02:42:13;;;;;;;2.03;1.13;;;;;25.10;100526.00;;;;5049915;28;20227;-77
2022/06/24 02:44:42;;;;;;;2.03;1.08;;;;;25.10;100528.00;;;;5039405;28;20226;-77
2022/06/24 02:47:09;;;;;;;4.43;1.00;;;;;25.10;100531.00;;;;5053238;28;20192;-77
2022/06/24 02:49:36;;;;;;;1.40;1.00;;;;;25.10;100540.00;;;;5042808;28;20196;-78
2022/06/24 02:52:04;;;;;;;1.13;0.90;;;;;25.10;100540.00;;;;5045890;28;20203;-77
2022/06/24 02:54:32;;;;;;;1.00;0.82;;;;;25.10;100541.00;;;;5042007;28;20192;-77
2022/06/24 02:56:59;;;;;;;1.65;0.90;;;;;25.10;100551.00;;;;5047762;28;20204;-77
2022/06/24 02:59:26;;;;;;;1.50;0.98;;;;;25.10;100549.00;;;;5032153;28;20673;-77
2022/06/24 03:01:55;;;;;;;1.42;0.93;;;;;25.00;100542.00;;;;5047553;28;20219;-77
2022/06/24 03:04:22;;;;;;;2.05;1.20;;;;;25.00;100555.00;;;;5043700;28;20196;-77
2022/06/24 03:06:49;;;;;;;1.70;0.95;;;;;25.00;100575.00;;;;5042146;28;20195;-77
2022/06/24 03:09:17;;;;;;;2.92;1.20;;;;;25.00;100590.00;;;;5051510;28;20199;-77
2022/06/24 03:11:44;;;;;;;1.70;1.10;;;;;25.00;100609.00;;;;5051032;28;20207;-77
2022/06/24 03:14:12;;;;;;;2.10;1.27;;;;;25.00;100615.00;;;;5048675;28;20200;-78
2022/06/24 03:16:39;;;;;;;3.38;1.25;;;;;25.00;100617.00;;;;5047985;28;20711;-78
2022/06/24 03:19:08;;;;;;;2.05;1.42;;;;;24.90;100620.00;;;;5047676;28;20206;-77
2022/06/24 03:21:35;;;;;;;1.90;1.13;;;;;24.90;100614.00;;;;5050250;28;20204;-78
2022/06/24 03:24:02;;;;;;;4.60;1.30;;;;;24.90;100590.00;;;;5044253;28;20211;-77
2022/06/24 03:26:29;;;;;;;1.67;1.17;;;;;24.80;100572.00;;;;5048845;28;20215;-78
2022/06/24 03:28:57;;;;;;;3.35;1.75;;;;;24.80;100565.00;;;;5048845;28;20200;-78
2022/06/24 03:31:24;;;;;;;1.90;1.60;;;;;24.70;100548.00;;;;5035886;28;20192;-78
2022/06/24 03:33:53;;;;;;;4.03;1.55;;;;;24.70;100533.00;;;;5033290;28;20210;-78
2022/06/24 03:36:22;;;;;;;4.35;1.50;;;;;24.70;100513.00;;;;5053659;28;20280;-78
2022/06/24 03:38:49;;;;;;;3.65;1.63;;;;;24.60;100497.00;;;;5063933;28;20211;-78
2022/06/24 03:41:16;;;;;;;1.42;1.08;;;;;24.60;100485.00;;;;5034611;28;20196;-78
2022/06/24 03:43:44;;;;;;;1.25;1.08;;;;;24.60;100474.00;;;;5049306;28;20247;-77
2022/06/24 03:46:11;;;;;;;1.83;1.23;;;;;24.60;100458.00;;;;5038602;28;20196;-77
2022/06/24 03:48:38;;;;;;;3.28;1.70;;;;;24.60;100461.00;;;;5045207;28;20203;-78
2022/06/24 03:51:05;;;;;;;1.30;1.10;;;;;24.60;100452.00;;;;5047296;28;20670;-77
2022/06/24 03:53:34;;;;;;;1.70;1.10;;;;;24.50;100454.00;;;;5035597;28;20203;-77
2022/06/24 03:56:01;;;;;;;2.22;1.10;;;;;24.60;100463.00;;;;5041295;28;20203;-76
2022/06/24 03:58:29;;;;;;;2.25;0.82;;;;;24.60;100471.00;;;;5039533;28;20200;-78
2022/06/24 04:01:02;;;;;;;1.95;1.25;;;;;24.50;100478.00;;;;5040600;28;20202;-76
2022/06/24 04:03:29;;;;;;;1.70;1.38;;;;;24.60;100476.00;;;;5042738;28;20231;-77
2022/06/24 04:05:56;;;;;;;2.30;1.38;;;;;24.60;100484.00;;;;5046151;28;20203;-76
2022/06/24 04:08:24;;;;;;;1.85;1.45;;;;;24.60;100486.00;;;;5047847;28;20282;-76
2022/06/24 04:10:52;;;;;;;1.98;1.38;;;;;24.60;100494.00;;;;5028449;28;20208;-76
2022/06/24 04:13:20;;;;;;;2.67;1.45;;;;;24.60;100499.00;;;;5035786;28;20214;-77
2022/06/24 04:15:49;;;;;;;1.85;1.40;;;;;24.60;100498.00;;;;5045854;28;20191;-77
2022/06/24 04:18:17;;;;;;;1.65;1.10;;;;;24.60;100497.00;;;;5046552;28;20207;-77
2022/06/24 04:20:44;;;;;;;1.33;1.13;;;;;24.60;100493.00;;;;5046897;28;20232;-76
2022/06/24 04:23:12;;;;;;;1.45;1.17;;;;;24.60;100486.00;;;;5047560;28;20223;-76
2022/06/24 04:25:39;;;;;;;1.60;1.40;;;;;24.60;100490.00;;;;5045146;28;20714;-76
2022/06/24 04:28:08;;;;;;;1.65;1.13;;;;;24.60;100495.00;;;;5033490;28;20211;-78
2022/06/24 04:30:36;;;;;;;1.60;1.23;;;;;24.70;100496.00;;;;5033601;28;20196;-79
2022/06/24 04:33:03;;;;;;;1.80;1.30;;;;;24.70;100492.00;;;;5035718;28;20214;-79
2022/06/24 04:35:30;;;;;;;1.98;1.40;;;;;24.70;100494.00;;;;5030982;28;20200;-79
2022/06/24 04:37:58;;;;;;;1.40;1.27;;;;;24.70;100495.00;;;;5045617;28;20664;-79
2022/06/24 04:40:25;;;;;;;3.55;1.45;;;;;24.70;100500.00;;;;5039623;28;20212;-78
2022/06/24 04:42:52;;;;;;;1.48;1.35;;;;;24.70;100512.00;;;;5039837;28;20215;-78
2022/06/24 04:45:21;;;;;;;2.20;1.25;;;;;24.70;100530.00;;;;5047868;28;20807;-78
2022/06/24 04:47:48;;;;;;;2.70;1.50;;;;;24.70;100526.00;;;;5047686;28;20204;-78
2022/06/24 04:50:16;;;;;;;1.95;1.50;;;;;24.80;100519.00;;;;5044090;28;20200;-79
2022/06/24 04:52:44;;;;;;;5.22;1.70;;;;;24.80;100520.00;;;;5052093;28;20545;-77
2022/06/24 04:55:11;;;;;;;1.92;1.83;;;;;24.80;100524.00;;;;5041595;28;21006;-76
2022/06/24 04:57:39;;;;;;;2.85;1.90;;;;;24.80;100516.00;;;;5038869;28;20673;-77
2022/06/24 05:00:09;;;;;;;2.17;1.65;;;;;24.80;100516.00;;;;5045385;28;20218;-76
2022/06/24 05:02:37;;;;;;;2.05;1.85;;;;;24.80;100523.00;;;;5046397;28;20227;-76
2022/06/24 05:05:06;;;;;;;1.35;1.23;;;;;24.80;100521.00;;;;5047958;28;20207;-76
2022/06/24 05:07:33;;;;;;;3.25;1.52;;;;;24.80;100520.00;;;;5043544;28;20208;-77
2022/06/24 05:10:00;;;;;;;2.63;1.25;;;;;24.90;100521.00;;;;5048054;28;20191;-76
2022/06/24 05:12:28;;;;;;;1.60;1.40;;;;;24.80;100525.00;;;;5046539;28;20218;-76
2022/06/24 05:14:55;;;;;;;2.50;1.70;;;;;24.90;100523.00;;;;5050824;28;20227;-76
2022/06/24 05:17:23;;;;;;;3.83;1.50;;;;;24.90;100524.00;;;;5051588;28;20199;-76
2022/06/24 05:19:51;;;;;;;1.60;1.35;;;;;24.90;100526.00;;;;5050989;28;20195;-76
2022/06/24 05:22:19;;;;;;;2.80;1.73;;;;;24.90;100512.00;;;;5046774;28;20202;-76
2022/06/24 05:24:46;;;;;;;1.52;1.42;;;;;24.90;100508.00;;;;5047478;28;20223;-76
2022/06/24 05:27:13;;;;;;;2.40;1.90;;;;;24.90;100511.00;;;;5050866;28;20204;-76
2022/06/24 05:29:41;;;;;;;2.28;1.92;;;;;24.90;100507.00;;;;5050901;28;20191;-77
2022/06/24 05:32:08;;;;;;;3.97;1.60;;;;;24.90;100497.00;;;;5050733;28;20202;-75
2022/06/24 05:34:36;;;;;;;5.03;1.95;;;;;24.90;100478.00;;;;5050916;28;20200;-77
2022/06/24 05:37:05;;;;;;;3.72;2.20;;;;;25.00;100477.00;;;;5051724;28;20204;-75
2022/06/24 05:39:32;;;;;;;4.03;1.80;;;;;25.00;100459.00;;;;5047050;28;20192;-75
2022/06/24 05:41:59;;;;;;;4.03;1.98;;;;;25.00;100456.00;;;;5042325;28;20203;-76
2022/06/24 05:44:26;;;;;;;2.65;1.73;;;;;25.00;100451.00;;;;5048340;28;20763;-75
2022/06/24 05:46:54;;;;;;;2.70;1.92;;;;;25.00;100457.00;;;;5050566;28;20207;-77
2022/06/24 05:49:22;;;;;;;3.13;1.85;;;;;25.00;100453.00;;;;5050335;28;20203;-76
2022/06/24 05:51:50;;;;;;;1.92;1.73;;;;;25.00;100454.00;;;;5047617;28;20208;-76
2022/06/24 05:57:04;;;;;;;2.25;1.63;;;;;25.00;100470.00;;;;5045882;28;20198;-78
2022/06/24 05:59:31;;;;;;;2.20;1.95;;;;;25.00;100486.00;;;;5040860;28;20199;-79
2022/06/24 06:01:58;;;;;;;2.20;1.88;;;;;25.00;100499.00;;;;5047547;28;20199;-78
2022/06/24 06:04:26;;;;;;;3.97;1.85;;;;;25.00;100507.00;;;;5048575;28;20246;-76
2022/06/24 06:06:53;;;;;;;2.97;2.05;;;;;25.10;100505.00;;;;5045530;28;20209;-78
2022/06/24 06:09:22;;;;;;;1.73;1.63;;;;;25.10;100513.00;;;;5050640;28;20220;-78
2022/06/24 06:11:49;;;;;;;2.60;2.17;;;;;25.10;100501.00;;;;5050457;28;20207;-78
2022/06/24 06:14:16;;;;;;;2.67;1.70;;;;;25.10;100512.00;;;;5046654;28;20220;-78
2022/06/24 06:16:45;;;;;;;2.53;1.77;;;;;25.20;100515.00;;;;5030739;28;20192;-78
2022/06/24 06:19:12;;;;;;;2.20;2.00;;;;;25.20;100509.00;;;;5042085;28;20195;-78
2022/06/24 06:21:39;;;;;;;2.58;1.95;;;;;25.20;100512.00;;;;5043286;28;20733;-78
2022/06/24 06:24:07;;;;;;;3.40;1.55;;;;;25.30;100514.00;;;;5029840;28;20239;-78
2022/06/24 06:26:35;;;;;;;4.10;2.30;;;;;25.30;100521.00;;;;5028496;28;20223;-78
2022/06/24 06:29:06;;;;;;;3.15;1.80;;;;;25.30;100523.00;;;;5028548;28;20924;-77
2022/06/24 06:31:34;;;;;;;4.40;2.22;;;;;25.30;100530.00;;;;5030139;28;20202;-78
2022/06/24 06:34:01;;;;;;;5.30;2.63;;;;;25.30;100540.00;;;;5029299;28;20215;-78
2022/06/24 06:36:28;;;;;;;4.00;2.30;;;;;25.40;100544.00;;;;5039472;28;20203;-76
2022/06/24 06:38:56;;;;;;;2.83;2.08;;;;;25.40;100556.00;;;;5049412;28;20779;-76
2022/06/24 06:41:23;;;;;;;2.80;2.08;;;;;25.40;100555.00;;;;5050172;28;20568;-76
2022/06/24 06:43:52;;;;;;;2.30;2.10;;;;;25.40;100546.00;;;;5049445;28;20697;-76
2022/06/24 06:46:19;;;;;;;2.33;2.13;;;;;25.40;100554.00;;;;5050044;28;20254;-76
2022/06/24 06:48:46;;;;;;;3.95;2.40;;;;;25.50;100554.00;;;;5049512;28;20560;-76
2022/06/24 06:51:13;;;;;;;2.72;2.50;;;;;25.50;100549.00;;;;5049521;28;20211;-77
2022/06/24 06:53:41;;;;;;;3.70;2.60;;;;;25.50;100552.00;;;;5049169;28;20219;-76
2022/06/24 06:56:08;;;;;;;3.45;3.05;;;;;25.50;100547.00;;;;5049971;28;20212;-77
2022/06/24 06:58:35;;;;;;;2.60;2.35;;;;;25.60;100546.00;;;;5049200;28;20214;-77
2022/06/24 07:01:04;;;;;;;3.90;2.20;;;;;25.60;100540.00;;;;5049454;28;20195;-77
2022/06/24 07:03:31;;;;;;;2.90;2.47;;;;;25.60;100548.00;;;;5049780;28;20230;-77
2022/06/24 07:05:58;;;;;;;5.25;3.05;;;;;25.60;100540.00;;;;5048529;28;20208;-77
2022/06/24 07:08:26;;;;;;;4.65;2.63;;;;;25.70;100540.00;;;;5050078;28;20211;-77
2022/06/24 07:10:53;;;;;;;4.50;2.70;;;;;25.70;100542.00;;;;5049174;28;20207;-77
2022/06/24 07:13:21;;;;;;;3.28;2.97;;;;;25.70;100541.00;;;;5050085;28;20212;-77
2022/06/24 07:15:48;;;;;;;4.22;3.40;;;;;25.70;100547.00;;;;5050673;28;20227;-77
2022/06/24 07:18:17;;;;;;;3.70;3.40;;;;;25.70;100555.00;;;;5050273;28;20207;-78
2022/06/24 07:20:44;;;;;;;3.28;2.97;;;;;25.70;100547.00;;;;5049077;28;20670;-77
2022/06/24 07:23:11;;;;;;;3.53;3.13;;;;;25.70;100544.00;;;;5038381;28;20434;-77
2022/06/24 07:25:39;;;;;;;3.08;2.83;;;;;25.70;100549.00;;;;5039149;28;20219;-77
2022/06/24 07:28:07;;;;;;;3.20;2.90;;;;;25.80;100544.00;;;;5049076;28;20211;-77
2022/06/24 07:30:34;;;;;;;3.42;3.08;;;;;25.80;100541.00;;;;5049619;28;20198;-77
2022/06/24 07:33:01;;;;;;;4.07;2.78;;;;;25.80;100539.00;;;;5049860;28;20574;-77
2022/06/24 07:35:30;;;;;;;3.40;3.05;;;;;25.80;100540.00;;;;5049517;28;20199;-77
2022/06/24 07:37:58;;;;;;;3.20;2.90;;;;;25.80;100543.00;;;;5047748;28;20565;-77
2022/06/24 07:40:25;;;;;;;3.80;3.17;;;;;25.80;100546.00;;;;5030153;28;20224;-77
2022/06/24 07:42:53;;;;;;;3.40;3.10;;;;;25.80;100548.00;;;;5029154;28;20738;-77
2022/06/24 07:45:20;;;;;;;6.38;3.70;;;;;25.80;100550.00;;;;5046178;28;20207;-77
2022/06/24 07:47:48;;;;;;;4.35;3.47;;;;;25.80;100550.00;;;;5049294;28;20203;-77
2022/06/24 07:50:15;;;;;;;3.55;3.03;;;;;25.80;100550.00;;;;5049297;28;20203;-77
2022/06/24 07:52:44;;;;;;;4.45;3.28;;;;;25.80;100552.00;;;;5048664;28;20199;-78
2022/06/24 07:57:55;;;;;;;4.85;4.00;;;;;25.80;100549.00;;;;5047646;28;20296;-78
2022/06/24 08:00:23;;;;;;;7.18;4.10;;;;;25.90;100545.00;;;;5048796;28;20192;-78
2022/06/24 08:02:50;;;;;;;5.70;4.38;;;;;25.90;100540.00;;;;5048030;28;20876;-77
2022/06/24 08:05:18;;;;;;;4.90;4.32;;;;;25.90;100539.00;;;;5048992;28;20231;-78
2022/06/24 08:07:47;;;;;;;6.30;4.82;;;;;25.90;100536.00;;;;5048346;28;20214;-77
2022/06/24 08:10:14;;;;;;;6.88;5.53;;;;;25.90;100537.00;;;;5048088;28;20952;-77
2022/06/24 08:12:42;;;;;;;5.30;4.63;;;;;26.00;100538.00;;;;5048267;28;20199;-77
2022/06/24 08:15:09;;;;;;;6.57;5.90;;;;;26.00;100534.00;;;;5028464;28;20219;-77
2022/06/24 08:17:37;;;;;;;5.63;5.13;;;;;26.00;100536.00;;;;5047254;28;20210;-77
2022/06/24 08:20:05;;;;;;;6.78;5.45;;;;;26.00;100541.00;;;;5047654;28;20200;-77
2022/06/24 08:22:32;;;;;;;5.93;5.13;;;;;26.10;100538.00;;;;5047559;28;20207;-77
2022/06/24 08:25:01;;;;;;;6.18;5.55;;;;;26.10;100540.00;;;;5047712;28;20231;-77
2022/06/24 08:27:28;;;;;;;5.85;5.25;;;;;26.10;100540.00;;;;5048420;28;20210;-77
2022/06/24 08:29:58;;;;;;;5.88;5.05;;;;;26.10;100540.00;;;;5046613;28;20211;-77
2022/06/24 08:32:25;;;;;;;5.43;4.90;;;;;26.10;100542.00;;;;5042815;28;20222;-77
2022/06/24 08:34:53;;;;;;;5.97;5.40;;;;;26.10;100535.00;;;;5047294;28;20215;-77
2022/06/24 08:37:20;;;;;;;7.35;6.10;;;;;26.20;100534.00;;;;5046156;28;20204;-77
2022/06/24 08:39:47;;;;;;;7.82;6.35;;;;;26.20;100535.00;;;;5046763;28;20203;-77
2022/06/24 08:42:16;;;;;;;6.95;6.25;;;;;26.20;100535.00;;;;5047638;28;20204;-78
2022/06/24 08:44:44;;;;;;;8.48;7.20;;;;;26.30;100535.00;;;;5044601;28;20242;-78
2022/06/24 08:47:15;;;;;;;8.20;7.15;;;;;26.20;100530.00;;;;5045421;28;20666;-77
2022/06/24 08:49:43;;;;;;;9.90;7.55;;;;;26.30;100538.00;;;;5046986;28;20210;-78
2022/06/24 08:52:12;;;;;;;7.50;6.80;;;;;26.40;100535.00;;;;5045580;28;20203;-77
2022/06/24 08:54:43;;;;;;;6.65;5.95;;;;;26.40;100538.00;;;;5043572;28;20207;-78
2022/06/24 08:57:11;;;;;;;7.60;6.80;;;;;26.40;100534.00;;;;5047510;28;20202;-79
2022/06/24 08:59:42;;;;;;;6.72;6.05;;;;;26.40;100540.00;;;;5047979;28;20202;-79
2022/06/24 09:02:13;;;;;;;6.50;5.65;;;;;26.50;100532.00;;;;5047393;28;20616;-79
2022/06/24 09:04:44;;;;;;;7.18;6.45;;;;;26.40;100540.00;;;;5046419;28;20233;-78
2022/06/24 09:07:23;;;;;;;7.57;6.50;;;;;26.40;100538.00;;;;5047465;28;20269;-78
2022/06/24 09:10:03;;;;;;;8.07;6.38;;;;;26.40;100545.00;;;;5040700;28;20200;-77
2022/06/24 09:12:31;;;;;;;7.53;6.10;;;;;26.50;100534.00;;;;5050606;28;20234;-77
2022/06/24 09:15:05;;;;;;;6.25;5.68;;;;;26.40;100536.00;;;;5047925;28;20195;-78
2022/06/24 09:17:34;;;;;;;6.45;5.07;;;;;26.50;100536.00;;;;5041751;28;20735;-79
2022/06/24 09:20:07;;;;;;;5.95;4.63;;;;;26.50;100535.00;;;;5047692;28;20196;-78
2022/06/24 09:22:34;;;;;;;4.88;4.38;;;;;26.50;100533.00;;;;5044721;28;20206;-78
2022/06/24 09:25:03;;;;;;;3.05;2.75;;;;;26.60;100525.00;;;;5047416;28;20238;-78
2022/06/24 09:27:31;;;;;;;3.38;2.88;;;;;26.60;100524.00;;;;5048251;28;20318;-79
2022/06/24 09:29:59;;;;;;;3.10;2.53;;;;;26.70;100529.00;;;;5048581;28;20615;-79
2022/06/24 09:32:27;;;;;;;2.08;1.98;;;;;26.70;100525.00;;;;5049189;28;20692;-79
2022/06/24 09:35:03;;;;;;;2.50;2.28;;;;;26.80;100522.00;;;;5047544;28;20279;-78
2022/06/24 09:37:38;;;;;;;2.55;1.98;;;;;26.90;100526.00;;;;5047826;28;20199;-78
2022/06/24 09:40:23;;;;;;;2.53;2.10;;;;;26.90;100526.00;;;;5044798;28;20226;-79
2022/06/24 09:42:59;;;;;;;2.20;2.00;;;;;27.00;100530.00;;;;5041399;28;20204;-78
2022/06/24 09:45:42;;;;;;;3.42;2.63;;;;;27.10;100534.00;;;;5045935;28;20236;-80
2022/06/24 09:48:11;;;;;;;3.60;3.30;;;;;27.20;100541.00;;;;5045899;28;20562;-77
2022/06/24 09:50:40;;;;;;;4.60;3.33;;;;;27.20;100540.00;;;;5046913;28;20265;-77
2022/06/24 09:53:09;;;;;;;3.67;3.08;;;;;27.30;100541.00;;;;5048053;28;20281;-77
2022/06/24 09:55:38;;;;;;;3.33;3.05;;;;;27.30;100545.00;;;;5043486;28;20195;-78
2022/06/24 09:58:06;;;;;;;4.00;3.00;;;;;27.40;100551.00;;;;5051131;28;20575;-79
2022/06/24 10:00:43;;;;;;;3.60;3.28;;;;;27.40;100541.00;;;;5049603;28;20211;-78
2022/06/24 10:03:13;;;;;;;4.25;3.70;;;;;27.40;100546.00;;;;5052974;28;20203;-78
2022/06/24 10:05:42;;;;;;;5.38;3.97;;;;;27.50;100546.00;;;;5051227;28;20223;-77
2022/06/24 10:08:12;;;;;;;5.88;4.22;;;;;27.50;100553.00;;;;5051507;28;20192;-78
2022/06/24 10:10:45;;;;;;;5.00;3.53;;;;;27.50;100545.00;;;;5047194;28;20285;-77
2022/06/24 10:13:24;;;;;;;7.22;4.43;;;;;27.60;100550.00;;;;5042089;28;20196;-76
2022/06/24 10:15:52;;;;;;;4.65;4.28;;;;;27.70;100550.00;;;;5048061;28;20257;-77
2022/06/24 10:18:23;;;;;;;8.32;4.00;;;;;27.70;100544.00;;;;5049703;28;20215;-77
2022/06/24 10:20:52;;;;;;;4.95;4.55;;;;;27.80;100541.00;;;;5050113;28;20206;-76
2022/06/24 10:23:42;;;;;;;5.70;4.65;;;;;27.80;100536.00;;;;5050929;28;20203;-76
2022/06/24 10:26:14;;;;;;;4.47;4.07;;;;;27.90;100538.00;;;;5050162;28;20278;-77
2022/06/24 10:29:19;;;;;;;6.90;5.10;;;;;27.90;100541.00;;;;5050598;28;20195;-76
2022/06/24 10:31:54;;;;;;;5.28;4.50;;;;;28.00;100535.00;;;;5031441;28;20227;-77
2022/06/24 10:34:38;;;;;;;6.47;5.68;;;;;28.00;100531.00;;;;5038667;28;20202;-76
2022/06/24 10:37:23;;;;;;;5.93;5.07;;;;;28.10;100534.00;;;;5048944;28;20211;-76
2022/06/24 10:39:52;;;;;;;7.93;5.70;;;;;28.20;100533.00;;;;5048662;28;20231;-77
2022/06/24 10:42:21;;;;;;;6.38;5.88;;;;;28.30;100536.00;;;;5050949;28;20199;-78
2022/06/24 10:44:55;;;;;;;7.18;6.38;;;;;28.30;100535.00;;;;5050154;28;20236;-76
2022/06/24 10:47:30;;;;;;;5.63;5.18;;;;;28.40;100525.00;;;;5046885;28;20196;-77
2022/06/24 10:50:11;;;;;;;6.00;5.43;;;;;28.50;100526.00;;;;5049774;28;20684;-77
2022/06/24 10:52:41;;;;;;;5.72;4.95;;;;;28.60;100526.00;;;;5050506;28;20685;-77
2022/06/24 10:55:28;;;;;;;6.10;5.25;;;;;28.60;100518.00;;;;5050056;28;20203;-77
2022/06/24 10:57:57;;;;;;;6.00;4.70;;;;;28.80;100519.00;;;;5021203;28;20258;-77
2022/06/24 11:00:27;;;;;;;6.43;5.88;;;;;29.00;100519.00;;;;5033329;28;20184;-77
2022/06/24 11:02:59;;;;;;;6.97;6.03;;;;;29.00;100523.00;;;;5048478;28;20196;-76
2022/06/24 11:05:32;;;;;;;6.25;5.70;;;;;29.20;100525.00;;;;5049645;28;20246;-77
2022/06/24 11:08:01;;;;;;;6.68;6.00;;;;;29.30;100527.00;;;;5049537;28;20199;-76
2022/06/24 11:10:30;;;;;;;6.97;6.28;;;;;29.30;100515.00;;;;5049792;28;20199;-76
2022/06/24 11:12:59;;;;;;;7.05;6.25;;;;;29.40;100524.00;;;;5049450;28;20638;-77
2022/06/24 11:15:34;;;;;;;6.20;5.60;;;;;29.40;100519.00;;;;5049882;28;20200;-77
2022/06/24 11:18:07;;;;;;;6.15;5.55;;;;;29.50;100523.00;;;;5048440;28;20203;-77
2022/06/24 11:20:38;;;;;;;6.60;6.00;;;;;29.60;100519.00;;;;5047081;28;20208;-76
2022/06/24 11:23:09;;;;;;;10.02;7.28;;;;;29.50;100527.00;;;;5049144;28;20202;-77
2022/06/24 11:25:39;;;;;;;6.65;6.05;;;;;29.50;100534.00;;;;5048189;28;20606;-77
2022/06/24 11:28:16;;;;;;;6.63;5.85;;;;;29.40;100530.00;;;;5041382;28;20192;-76
2022/06/24 11:30:44;;;;;;;6.60;5.90;;;;;29.40;100530.00;;;;5048972;28;20669;-76
2022/06/24 11:33:14;;;;;;;6.68;5.85;;;;;29.30;100530.00;;;;5047902;28;20196;-77
2022/06/24 11:35:43;;;;;;;6.35;5.72;;;;;29.20;100537.00;;;;5048777;28;20573;-77
2022/06/24 11:38:11;;;;;;;6.00;5.40;;;;;29.10;100545.00;;;;5036900;28;20196;-76
2022/06/24 11:40:40;;;;;;;4.45;4.05;;;;;29.00;100566.00;;;;5045399;28;20208;-76
2022/06/24 11:43:11;;;;;;;4.22;3.25;;;;;28.90;100572.00;;;;5047234;28;20211;-76
2022/06/24 11:45:40;;;;;;;10.45;5.20;;;;;28.70;100604.00;;;;5045982;28;20633;-76
2022/06/24 11:48:10;;;;;;;6.45;5.30;;;;;28.50;100580.00;;;;5041211;28;20576;-76
2022/06/24 11:50:38;;;;;;;7.95;5.32;;;;;28.20;100569.00;;;;5044736;28;20214;-75
2022/06/24 11:53:08;;;;;;;5.82;5.22;;;;;28.00;100553.00;;;;5048019;28;20582;-76
2022/06/24 11:55:37;;;;;;;6.70;5.10;;;;;27.80;100539.00;;;;5043943;28;20742;-75
2022/06/24 11:58:06;;;;;;;6.85;5.38;;;;;27.60;100539.00;;;;5048196;28;20195;-76
2022/06/24 12:00:35;;;;;;;6.75;4.80;;;;;27.50;100511.00;;;;5048102;28;20200;-76
2022/06/24 12:03:04;;;;;;;9.35;5.28;;;;;27.50;100510.00;;;;5049224;28;20207;-76
2022/06/24 12:05:33;;;;;;;6.68;5.80;;;;;27.40;100516.00;;;;5049273;28;20226;-77
2022/06/24 12:08:01;;;;;;;7.93;6.50;;;;;27.40;100512.00;;;;5048763;28;20277;-76
2022/06/24 12:10:30;;;;;;;7.00;5.97;;;;;27.40;100516.00;;;;5049194;28;20214;-76
2022/06/24 12:12:59;;;;;;;7.95;6.47;;;;;27.40;100510.00;;;;5031302;28;20214;-76
2022/06/24 12:15:33;;;;;;;7.25;6.18;;;;;27.40;100508.00;;;;5030289;28;20192;-76
2022/06/24 12:18:01;;;;;;;6.88;6.18;;;;;27.40;100515.00;;;;5045548;28;20504;-77
2022/06/24 12:20:30;;;;;;;7.28;6.55;;;;;27.40;100511.00;;;;5049284;28;20203;-77
2022/06/24 12:23:17;;;;;;;7.28;6.60;;;;;27.30;100518.00;;;;5047124;28;20200;-77
2022/06/24 12:25:48;;;;;;;7.65;6.78;;;;;27.40;100529.00;;;;5048354;28;20226;-76